Time;durP1;ratioP1;P1;durP2;ratioP2;P2;SDS_P1;SDS_P2;PMS_P1;PMS_P2;Temp;Humidity;BMP_temperature;BMP_pressure;BME280_temperature;BME280_humidity;BME280_pressure;Samples;Min_cycle;Max_cycle;Signal;HPM_P1;HPM_P2
2023/10/23 00:00:15;;;;;;;7.43;4.32;;;;;;;12.06;94.63;100269.94;2081445;28;20033;-78
2023/10/23 00:01:19;;;;;;;8.65;4.43;;;;;;;12.06;94.43;100269.94;2091397;28;20042;-79
2023/10/23 00:02:20;;;;;;;6.85;3.90;;;;;;;12.08;94.79;100269.66;2099064;28;20029;-78
2023/10/23 00:03:22;;;;;;;7.53;4.20;;;;;;;12.04;94.81;100265.94;2081793;28;20077;-78
2023/10/23 00:04:24;;;;;;;8.40;4.30;;;;;;;12.08;95.06;100266.16;2073847;28;20042;-79
2023/10/23 00:05:25;;;;;;;5.85;3.45;;;;;;;12.07;94.98;100265.34;2082274;28;20037;-78
2023/10/23 00:06:27;;;;;;;6.15;3.60;;;;;;;12.08;95.22;100269.66;2098181;28;20154;-79
2023/10/23 00:07:31;;;;;;;7.82;3.88;;;;;;;12.10;95.09;100272.84;2098392;28;20037;-79
2023/10/23 00:08:39;;;;;;;8.50;3.97;;;;;;;12.10;95.04;100277.44;2091139;28;20162;-79
2023/10/23 00:09:48;;;;;;;5.93;3.72;;;;;;;12.08;95.00;100277.75;2115704;28;20036;-79
2023/10/23 00:10:49;;;;;;;6.65;3.90;;;;;;;12.09;94.81;100271.25;2089056;28;20042;-80
2023/10/23 00:11:51;;;;;;;6.85;4.10;;;;;;;12.08;94.98;100271.56;2073858;28;20030;-80
2023/10/23 00:12:53;;;;;;;5.72;3.55;;;;;;;12.06;95.17;100258.34;2092037;28;20072;-79
2023/10/23 00:13:57;;;;;;;6.00;3.70;;;;;;;12.10;95.06;100277.44;2107142;28;20137;-78
2023/10/23 00:14:59;;;;;;;5.35;3.60;;;;;;;12.08;95.22;100269.66;2091778;28;20767;-79
2023/10/23 00:16:03;;;;;;;7.57;4.22;;;;;;;12.01;95.15;100267.34;2081848;28;20041;-79
2023/10/23 00:17:09;;;;;;;5.75;3.58;;;;;;;12.07;94.94;100268.03;2076399;28;20105;-79
2023/10/23 00:18:11;;;;;;;5.20;3.35;;;;;;;12.07;95.06;100268.03;2073399;28;20046;-79
2023/10/23 00:19:14;;;;;;;6.07;3.42;;;;;;;12.09;95.25;100267.75;2065941;28;20043;-80
2023/10/23 00:20:16;;;;;;;6.95;3.58;;;;;;;12.08;95.39;100275.03;2082856;28;20041;-79
2023/10/23 00:21:18;;;;;;;7.88;3.50;;;;;;;12.02;95.22;100263.53;2090139;28;20122;-79
2023/10/23 00:22:23;;;;;;;4.80;3.30;;;;;;;12.07;95.20;100273.44;2098379;28;20087;-79
2023/10/23 00:23:24;;;;;;;6.78;3.45;;;;;;;12.05;95.36;100279.13;2090304;28;20066;-79
2023/10/23 00:24:28;;;;;;;6.95;3.42;;;;;;;12.08;95.32;100279.63;2073864;28;20888;-79
2023/10/23 00:25:31;;;;;;;5.72;3.58;;;;;;;12.06;95.38;100275.31;2082875;28;20042;-80
2023/10/23 00:26:32;;;;;;;5.80;3.97;;;;;;;12.05;95.51;100278.31;2082065;28;20792;-79
2023/10/23 00:27:37;;;;;;;5.13;3.45;;;;;;;12.05;95.27;100278.31;2090579;28;20073;-78
2023/10/23 00:28:39;;;;;;;5.82;3.72;;;;;;;12.07;95.26;100281.50;2090425;28;20052;-78
2023/10/23 00:29:40;;;;;;;9.02;4.05;;;;;;;12.06;95.34;100274.53;2090163;28;20041;-79
2023/10/23 00:30:47;;;;;;;5.82;3.50;;;;;;;12.05;95.43;100272.94;2072909;28;20082;-78
2023/10/23 00:31:51;;;;;;;5.10;3.80;;;;;;;12.04;95.44;100277.53;2084961;28;20817;-78
2023/10/23 00:32:53;;;;;;;5.90;3.70;;;;;;;12.06;95.36;100279.91;2098428;28;21041;-78
2023/10/23 00:33:55;;;;;;;6.35;3.97;;;;;;;12.06;95.57;100285.31;2106659;28;20043;-78
2023/10/23 00:34:58;;;;;;;5.90;3.35;;;;;;;12.05;95.58;100283.72;2098187;28;20033;-77
2023/10/23 00:36:00;;;;;;;5.18;3.63;;;;;;;12.05;95.41;100284.50;2082108;28;20955;-78
2023/10/23 00:37:02;;;;;;;4.95;3.40;;;;;;;12.05;95.45;100289.09;2098466;28;20847;-78
2023/10/23 00:38:06;;;;;;;5.47;3.38;;;;;;;12.06;95.46;100285.31;2089824;28;20908;-77
2023/10/23 00:39:10;;;;;;;5.35;3.08;;;;;;;11.99;95.52;100280.31;2074900;28;20038;-78
2023/10/23 00:40:14;;;;;;;5.43;3.20;;;;;;;12.04;95.55;100292.88;2090509;28;20056;-78
2023/10/23 00:41:18;;;;;;;6.00;3.70;;;;;;;12.04;95.58;100292.88;2113556;28;20040;-77
2023/10/23 00:42:21;;;;;;;5.10;3.30;;;;;;;12.06;95.67;100296.09;2098051;28;20856;-78
2023/10/23 00:43:25;;;;;;;6.10;3.83;;;;;;;12.08;95.73;100302.00;2099100;28;20041;-77
2023/10/23 00:44:27;;;;;;;9.25;3.70;;;;;;;12.08;95.70;100299.28;2101245;28;20061;-77
2023/10/23 00:45:30;;;;;;;5.10;3.33;;;;;;;12.08;95.93;100304.69;2097330;28;20902;-78
2023/10/23 00:46:34;;;;;;;4.47;3.28;;;;;;;12.09;96.03;100300.88;2090510;28;20037;-78
2023/10/23 00:47:36;;;;;;;4.68;3.13;;;;;;;12.09;95.94;100300.88;2090235;28;20891;-77
2023/10/23 00:48:43;;;;;;;6.40;3.78;;;;;;;12.11;95.97;100306.00;2089391;28;20143;-78
2023/10/23 00:49:46;;;;;;;6.47;3.78;;;;;;;12.05;95.97;100289.09;2097490;28;20033;-78
2023/10/23 00:50:49;;;;;;;5.80;3.80;;;;;;;12.12;95.91;100302.19;2098923;28;20056;-78
2023/10/23 00:51:52;;;;;;;6.68;3.67;;;;;;;12.10;95.95;100297.09;2098636;28;20709;-78
2023/10/23 00:52:57;;;;;;;5.05;3.33;;;;;;;12.13;96.06;100304.59;2090669;28;20687;-77
2023/10/23 00:54:03;;;;;;;6.13;3.45;;;;;;;12.12;96.30;100294.91;2089976;28;20037;-78
2023/10/23 00:55:11;;;;;;;5.25;3.05;;;;;;;12.13;96.27;100293.81;2092043;28;20025;-77
2023/10/23 00:56:13;;;;;;;9.13;3.75;;;;;;;12.14;96.32;100308.91;2091125;28;20919;-78
2023/10/23 00:57:18;;;;;;;5.70;3.10;;;;;;;12.16;96.39;100306.69;2090684;28;20037;-77
2023/10/23 00:58:27;;;;;;;5.50;3.60;;;;;;;12.16;96.49;100303.19;2099522;28;20143;-78
2023/10/23 00:59:28;;;;;;;5.80;3.33;;;;;;;12.16;96.51;100306.69;2090871;28;20810;-78
2023/10/23 01:00:38;;;;;;;7.38;3.42;;;;;;;12.15;96.50;100307.00;2080953;28;20955;-78
2023/10/23 01:01:41;;;;;;;3.53;2.90;;;;;;;12.16;96.76;100306.69;2084317;28;20757;-78
2023/10/23 01:02:45;;;;;;;4.38;2.95;;;;;;;12.15;96.44;100298.91;2090534;28;20037;-78
2023/10/23 01:03:50;;;;;;;5.53;3.20;;;;;;;12.16;96.53;100309.38;2090785;28;20835;-78
2023/10/23 01:04:52;;;;;;;5.68;3.10;;;;;;;12.14;96.59;100303.50;2081965;28;20057;-78
2023/10/23 01:05:56;;;;;;;4.18;2.92;;;;;;;12.14;96.73;100298.13;2074504;28;20041;-79
2023/10/23 01:07:03;;;;;;;6.65;3.00;;;;;;;12.15;96.75;100305.09;2082218;28;20112;-77
2023/10/23 01:08:05;;;;;;;5.32;3.22;;;;;;;12.14;96.63;100302.72;2082606;28;20153;-77
2023/10/23 01:09:07;;;;;;;5.55;2.60;;;;;;;12.16;96.74;100305.91;2081978;28;20050;-78
2023/10/23 01:10:09;;;;;;;3.83;2.58;;;;;;;12.17;96.96;100304.78;2081615;28;20772;-78
2023/10/23 01:11:13;;;;;;;4.05;2.28;;;;;;;12.15;96.82;100305.09;2087761;28;20033;-77
2023/10/23 01:12:15;;;;;;;3.63;2.40;;;;;;;12.15;96.87;100307.00;2081669;28;20034;-77
2023/10/23 01:13:19;;;;;;;3.42;2.30;;;;;;;12.14;96.89;100306.22;2090368;28;20033;-77
2023/10/23 01:14:21;;;;;;;4.97;2.15;;;;;;;12.16;96.88;100311.28;2097842;28;20037;-81
2023/10/23 01:15:23;;;;;;;4.28;2.20;;;;;;;12.16;96.83;100312.09;2082180;28;20030;-81
2023/10/23 01:16:27;;;;;;;3.38;2.10;;;;;;;12.17;97.05;100315.56;2073731;28;20822;-81
2023/10/23 01:17:29;;;;;;;2.50;1.98;;;;;;;12.14;97.03;100311.59;2066878;28;20169;-81
2023/10/23 01:18:31;;;;;;;4.22;2.10;;;;;;;12.16;97.21;100311.28;2090432;28;20140;-81
2023/10/23 01:19:33;;;;;;;3.90;1.90;;;;;;;12.15;96.98;100309.69;2089754;28;20053;-81
2023/10/23 01:20:40;;;;;;;3.00;1.80;;;;;;;12.14;96.95;100317.00;2081978;28;20057;-82
2023/10/23 01:21:44;;;;;;;2.63;1.70;;;;;;;12.15;96.86;100318.56;2108297;28;21137;-81
2023/10/23 01:22:48;;;;;;;5.55;1.90;;;;;;;12.14;96.94;100313.50;2115697;28;20871;-81
2023/10/23 01:23:52;;;;;;;2.05;1.70;;;;;;;12.10;97.01;100312.47;2115822;27;20804;-81
2023/10/23 01:24:57;;;;;;;2.85;1.90;;;;;;;12.15;97.04;100315.88;2091413;28;20034;-81
2023/10/23 01:25:59;;;;;;;2.42;1.83;;;;;;;12.10;97.02;100318.66;2100124;28;20871;-81
2023/10/23 01:27:00;;;;;;;4.07;1.75;;;;;;;12.11;97.04;100312.19;2091187;28;20087;-81
2023/10/23 01:28:05;;;;;;;3.10;1.80;;;;;;;12.11;96.94;100314.88;2083362;28;20041;-81
2023/10/23 01:29:07;;;;;;;5.65;2.00;;;;;;;12.14;97.01;100318.88;2099577;28;20041;-81
2023/10/23 01:30:11;;;;;;;3.22;1.60;;;;;;;12.14;96.89;100318.88;2107650;28;20047;-83
2023/10/23 01:31:12;;;;;;;2.20;1.77;;;;;;;12.12;97.06;100324.56;2105169;28;20033;-83
2023/10/23 01:32:14;;;;;;;3.65;1.88;;;;;;;12.13;96.96;100319.97;2091137;28;20785;-83
2023/10/23 01:33:17;;;;;;;4.00;1.90;;;;;;;12.13;96.87;100319.97;2091652;28;20044;-82
2023/10/23 01:34:18;;;;;;;2.22;1.60;;;;;;;12.09;96.68;100314.38;2091336;28;20046;-83
2023/10/23 01:35:19;;;;;;;2.75;1.65;;;;;;;12.10;96.74;100321.34;2099655;28;20032;-79
2023/10/23 01:36:20;;;;;;;3.05;1.67;;;;;;;12.10;96.74;100317.84;2107819;28;20137;-79
2023/10/23 01:37:25;;;;;;;3.15;1.80;;;;;;;12.08;96.82;100323.56;2108417;28;20043;-79
2023/10/23 01:38:27;;;;;;;2.05;1.70;;;;;;;12.08;96.73;100320.84;2115203;28;21235;-79
2023/10/23 01:39:29;;;;;;;2.40;1.58;;;;;;;12.08;96.53;100320.06;2108094;28;20856;-79
2023/10/23 01:40:31;;;;;;;2.47;1.70;;;;;;;12.08;96.81;100325.44;2098946;28;20045;-79
2023/10/23 01:41:37;;;;;;;2.90;2.00;;;;;;;12.06;96.53;100328.44;2083360;28;20036;-79
2023/10/23 01:42:39;;;;;;;4.40;1.75;;;;;;;12.05;96.31;100321.44;2092951;28;20048;-79
2023/10/23 01:43:43;;;;;;;2.60;1.65;;;;;;;12.03;96.64;100319.03;2099037;28;20029;-79
2023/10/23 01:44:45;;;;;;;3.05;1.60;;;;;;;12.06;96.52;100328.44;2092012;28;20186;-78
2023/10/23 01:45:53;;;;;;;3.35;1.75;;;;;;;12.05;96.32;100327.63;2092728;28;20087;-79
2023/10/23 01:46:58;;;;;;;3.33;1.80;;;;;;;12.01;96.33;100320.41;2093382;28;20030;-80
2023/10/23 01:48:00;;;;;;;4.07;1.70;;;;;;;12.00;96.26;100324.22;2100164;28;20163;-79
2023/10/23 01:49:02;;;;;;;3.65;1.70;;;;;;;12.03;96.32;100327.09;2091058;28;20135;-79
2023/10/23 01:50:10;;;;;;;2.60;1.70;;;;;;;12.01;96.35;100320.41;2092630;28;20087;-79
2023/10/23 01:51:12;;;;;;;3.28;2.03;;;;;;;12.05;96.18;100329.53;2108772;28;20024;-79
2023/10/23 01:52:15;;;;;;;3.55;1.60;;;;;;;12.04;96.24;100326.03;2099552;28;20828;-79
2023/10/23 01:53:22;;;;;;;2.40;1.80;;;;;;;11.95;96.19;100311.63;2099706;28;20117;-79
2023/10/23 01:54:26;;;;;;;2.30;1.50;;;;;;;12.01;96.09;100325.78;2100696;28;20134;-78
2023/10/23 01:55:28;;;;;;;3.90;2.00;;;;;;;12.02;96.22;100330.13;2099609;28;21289;-79
2023/10/23 01:56:31;;;;;;;2.40;1.48;;;;;;;11.98;96.00;100326.38;2108135;28;20048;-78
2023/10/23 01:57:37;;;;;;;2.03;1.45;;;;;;;12.01;96.07;100332.00;2099726;28;20111;-78
2023/10/23 01:58:45;;;;;;;2.08;1.48;;;;;;;12.00;95.97;100332.28;2101763;28;20748;-79
2023/10/23 01:59:52;;;;;;;2.22;1.77;;;;;;;11.99;96.11;100333.41;2107796;28;20029;-79
2023/10/23 02:00:53;;;;;;;2.92;1.48;;;;;;;11.97;95.97;100330.19;2098950;28;20102;-78
2023/10/23 02:01:55;;;;;;;3.47;1.63;;;;;;;11.91;95.81;100324.06;2099606;28;20874;-78
2023/10/23 02:02:57;;;;;;;2.22;1.42;;;;;;;11.94;95.71;100331.56;2091454;28;20835;-78
2023/10/23 02:03:59;;;;;;;2.63;1.77;;;;;;;11.95;95.63;100337.78;2107768;28;20824;-78
2023/10/23 02:05:00;;;;;;;3.03;1.65;;;;;;;11.92;95.81;100331.06;2107733;28;20047;-77
2023/10/23 02:06:02;;;;;;;4.38;1.67;;;;;;;11.93;95.57;100335.34;2090903;28;20864;-77
2023/10/23 02:07:05;;;;;;;4.28;1.60;;;;;;;11.92;95.63;100338.34;2083219;28;20242;-77
2023/10/23 02:08:09;;;;;;;2.28;1.70;;;;;;;11.90;95.29;100330.56;2075296;28;20038;-76
2023/10/23 02:09:12;;;;;;;2.38;1.60;;;;;;;11.89;95.57;100331.66;2096833;28;20053;-77
2023/10/23 02:10:13;;;;;;;2.20;1.50;;;;;;;11.88;95.06;100331.94;2099355;28;20036;-80
2023/10/23 02:11:17;;;;;;;2.53;1.83;;;;;;;11.87;95.27;100335.72;2098879;28;20040;-79
2023/10/23 02:12:22;;;;;;;2.50;1.60;;;;;;;11.85;95.10;100335.22;2091311;28;20927;-77
2023/10/23 02:13:27;;;;;;;2.58;1.65;;;;;;;11.83;95.24;100336.28;2083358;28;20841;-78
2023/10/23 02:14:30;;;;;;;4.05;1.77;;;;;;;11.80;95.19;100331.47;2098520;28;20880;-77
2023/10/23 02:15:32;;;;;;;2.85;1.40;;;;;;;11.83;95.10;100325.50;2091061;28;20100;-77
2023/10/23 02:16:37;;;;;;;2.90;1.63;;;;;;;11.81;94.87;100334.97;2088657;28;20158;-77
2023/10/23 02:17:38;;;;;;;2.25;1.58;;;;;;;11.78;94.91;100335.56;2107434;28;20029;-77
2023/10/23 02:18:43;;;;;;;3.45;1.90;;;;;;;11.80;95.10;100339.56;2091043;28;21234;-77
2023/10/23 02:19:47;;;;;;;2.03;1.60;;;;;;;11.70;94.76;100331.63;2075276;28;20042;-77
2023/10/23 02:20:49;;;;;;;3.33;1.58;;;;;;;11.72;94.90;100340.19;2083272;28;20034;-77
2023/10/23 02:21:51;;;;;;;2.60;1.60;;;;;;;11.76;94.83;100346.63;2082304;28;20877;-77
2023/10/23 02:22:55;;;;;;;2.42;1.50;;;;;;;11.73;94.91;100349.91;2092433;28;20096;-78
2023/10/23 02:23:56;;;;;;;3.55;1.45;;;;;;;11.74;94.75;100348.00;2098674;28;20164;-78
2023/10/23 02:25:01;;;;;;;2.15;1.63;;;;;;;11.74;94.62;100346.13;2067224;28;20753;-78
2023/10/23 02:26:02;;;;;;;1.58;1.45;;;;;;;11.74;94.71;100354.19;2067443;28;20039;-78
2023/10/23 02:27:04;;;;;;;3.10;1.42;;;;;;;11.73;94.79;100347.22;2082954;28;20818;-78
2023/10/23 02:28:13;;;;;;;2.60;1.40;;;;;;;11.72;94.69;100350.97;2107397;28;20048;-78
2023/10/23 02:29:19;;;;;;;1.75;1.48;;;;;;;11.70;94.69;100347.78;2099311;28;20076;-78
2023/10/23 02:30:28;;;;;;;2.75;1.27;;;;;;;11.71;94.74;100348.59;2075687;28;20762;-78
2023/10/23 02:31:30;;;;;;;2.55;1.50;;;;;;;11.72;94.64;100345.59;2072076;28;20137;-77
2023/10/23 02:32:33;;;;;;;3.40;1.30;;;;;;;11.72;94.52;100347.50;2099305;28;20167;-77
2023/10/23 02:33:38;;;;;;;2.15;1.30;;;;;;;11.72;94.80;100345.59;2107209;28;20028;-78
2023/10/23 02:34:40;;;;;;;4.57;1.55;;;;;;;11.71;94.89;100344.00;2091471;28;20030;-78
2023/10/23 02:35:43;;;;;;;3.03;1.50;;;;;;;11.72;94.70;100344.78;2099409;28;20070;-77
2023/10/23 02:36:46;;;;;;;5.03;1.55;;;;;;;11.72;94.74;100350.19;2098810;28;20941;-78
2023/10/23 02:37:49;;;;;;;1.88;1.23;;;;;;;11.69;94.78;100346.16;2091103;28;20866;-78
2023/10/23 02:38:52;;;;;;;2.50;1.40;;;;;;;11.72;94.90;100356.38;2082421;28;20176;-79
2023/10/23 02:39:58;;;;;;;2.78;1.50;;;;;;;11.72;94.84;100350.19;2084115;28;20112;-77
2023/10/23 02:40:59;;;;;;;2.25;1.40;;;;;;;11.72;95.00;100353.66;2094424;28;20128;-78
2023/10/23 02:42:02;;;;;;;3.60;1.30;;;;;;;11.72;95.00;100348.28;2090625;28;20792;-78
2023/10/23 02:43:03;;;;;;;1.50;1.20;;;;;;;11.73;95.08;100349.09;2074156;28;20141;-78
2023/10/23 02:44:08;;;;;;;2.15;1.30;;;;;;;11.72;95.19;100350.97;2083961;28;20752;-78
2023/10/23 02:45:13;;;;;;;5.07;1.40;;;;;;;11.72;95.04;100345.59;2090565;28;20041;-77
2023/10/23 02:46:17;;;;;;;1.75;1.20;;;;;;;11.72;95.07;100350.97;2089948;28;20168;-78
2023/10/23 02:47:20;;;;;;;2.75;1.60;;;;;;;11.73;95.00;100352.59;2099589;28;20032;-78
2023/10/23 02:48:23;;;;;;;2.67;1.20;;;;;;;11.71;95.17;100343.19;2090612;28;20042;-78
2023/10/23 02:49:30;;;;;;;2.42;1.40;;;;;;;11.72;95.22;100353.66;2083481;28;20030;-78
2023/10/23 02:50:32;;;;;;;2.45;1.40;;;;;;;11.71;95.16;100341.31;2083449;28;20109;-78
2023/10/23 02:51:38;;;;;;;3.70;1.40;;;;;;;11.74;95.32;100354.19;2083494;28;20041;-78
2023/10/23 02:52:43;;;;;;;2.22;1.10;;;;;;;11.67;95.51;100343.00;2091650;28;20124;-78
2023/10/23 02:53:44;;;;;;;2.67;1.33;;;;;;;11.71;95.28;100341.31;2082693;28;20046;-78
2023/10/23 02:54:45;;;;;;;2.15;1.40;;;;;;;11.74;95.29;100348.81;2090738;28;20038;-78
2023/10/23 02:55:49;;;;;;;2.13;1.10;;;;;;;11.72;94.71;100352.88;2090632;28;20164;-78
2023/10/23 02:56:51;;;;;;;1.80;1.20;;;;;;;11.74;95.30;100348.81;2091450;28;20092;-77
2023/10/23 02:57:56;;;;;;;1.67;1.23;;;;;;;11.75;95.31;100350.41;2106659;28;20032;-78
2023/10/23 02:59:00;;;;;;;1.77;1.25;;;;;;;11.74;95.36;100356.88;2090345;28;20839;-77
2023/10/23 03:00:01;;;;;;;2.90;1.48;;;;;;;11.74;95.33;100348.81;2090827;28;20048;-78
2023/10/23 03:01:16;;;;;;;2.00;1.40;;;;;;;11.75;95.23;100355.00;2090673;28;20033;-77
2023/10/23 03:02:18;;;;;;;1.33;1.20;;;;;;;11.76;95.16;100354.72;2084014;28;20159;-77
2023/10/23 03:03:26;;;;;;;2.72;1.02;;;;;;;11.74;95.48;100354.19;2083035;28;20030;-78
2023/10/23 03:04:32;;;;;;;1.80;0.90;;;;;;;11.72;95.32;100350.97;2084575;28;20042;-77
2023/10/23 03:05:36;;;;;;;2.50;1.10;;;;;;;11.75;95.20;100355.00;2090622;28;20153;-77
2023/10/23 03:06:38;;;;;;;1.45;1.13;;;;;;;11.77;95.30;100352.81;2074311;28;20035;-77
2023/10/23 03:07:40;;;;;;;1.90;1.00;;;;;;;11.74;95.26;100353.41;2099147;28;20037;-77
2023/10/23 03:08:43;;;;;;;1.58;1.00;;;;;;;11.77;95.73;100356.31;2089981;28;20783;-77
2023/10/23 03:09:46;;;;;;;1.95;0.93;;;;;;;11.77;95.41;100353.59;2082844;28;20044;-78
2023/10/23 03:10:47;;;;;;;2.38;1.10;;;;;;;11.79;95.55;100350.59;2091644;28;20025;-77
2023/10/23 03:11:52;;;;;;;2.22;1.20;;;;;;;11.76;95.39;100346.63;2107327;28;20833;-78
2023/10/23 03:12:56;;;;;;;2.38;1.30;;;;;;;11.76;95.29;100354.72;2107393;28;20035;-75
2023/10/23 03:13:57;;;;;;;2.28;1.25;;;;;;;11.78;95.37;100355.19;2099186;28;20029;-77
2023/10/23 03:15:04;;;;;;;1.83;1.10;;;;;;;11.74;95.36;100356.88;2090603;28;20040;-76
2023/10/23 03:16:07;;;;;;;1.60;1.38;;;;;;;11.78;95.55;100352.50;2091315;28;20047;-77
2023/10/23 03:17:08;;;;;;;1.65;1.20;;;;;;;11.73;95.16;100341.81;2083468;28;20025;-77
2023/10/23 03:18:10;;;;;;;1.83;1.10;;;;;;;11.72;95.40;100347.50;2090800;28;20717;-77
2023/10/23 03:19:12;;;;;;;1.40;1.00;;;;;;;11.79;95.28;100362.22;2090676;28;20100;-77
2023/10/23 03:20:13;;;;;;;2.97;1.13;;;;;;;11.76;95.36;100352.03;2082835;28;20041;-77
2023/10/23 03:21:18;;;;;;;1.10;1.00;;;;;;;11.80;95.36;100353.03;2090820;28;20030;-77
2023/10/23 03:22:20;;;;;;;1.25;1.15;;;;;;;11.76;95.33;100354.72;2090778;28;20164;-76
2023/10/23 03:23:27;;;;;;;2.17;1.10;;;;;;;11.79;95.32;100350.59;2091076;28;20041;-77
2023/10/23 03:24:31;;;;;;;1.98;1.20;;;;;;;11.78;95.47;100355.19;2091542;28;20135;-77
2023/10/23 03:25:33;;;;;;;1.98;1.00;;;;;;;11.80;95.35;100363.81;2098961;28;20710;-78
2023/10/23 03:26:41;;;;;;;1.13;1.02;;;;;;;11.78;95.56;100357.91;2098884;28;20035;-78
2023/10/23 03:27:42;;;;;;;2.17;1.20;;;;;;;11.79;95.19;100356.81;2099246;28;20068;-78
2023/10/23 03:28:44;;;;;;;3.60;1.65;;;;;;;11.81;95.37;100360.00;2098620;28;20230;-79
2023/10/23 03:29:47;;;;;;;1.52;1.40;;;;;;;11.80;95.16;100358.41;2090623;28;20144;-79
2023/10/23 03:30:51;;;;;;;1.92;1.40;;;;;;;11.78;94.92;100360.59;2082146;28;20136;-79
2023/10/23 03:31:55;;;;;;;1.10;1.00;;;;;;;11.81;95.06;100359.22;2090632;28;20723;-79
2023/10/23 03:32:57;;;;;;;3.13;1.35;;;;;;;11.81;95.15;100365.41;2099301;28;20028;-79
2023/10/23 03:34:01;;;;;;;1.98;1.10;;;;;;;11.79;95.03;100364.91;2091046;28;20037;-77
2023/10/23 03:35:06;;;;;;;1.50;1.20;;;;;;;11.79;95.05;100358.69;2082410;28;20077;-77
2023/10/23 03:36:08;;;;;;;1.83;1.10;;;;;;;11.79;95.18;100367.59;2083229;28;20033;-77
2023/10/23 03:37:09;;;;;;;2.35;1.10;;;;;;;11.79;95.03;100362.22;2082406;28;20049;-78
2023/10/23 03:38:17;;;;;;;3.00;1.30;;;;;;;11.80;95.01;100368.41;2090963;28;20131;-79
2023/10/23 03:39:19;;;;;;;3.50;1.25;;;;;;;11.81;95.05;100373.47;2107222;28;20843;-80
2023/10/23 03:40:20;;;;;;;2.05;1.40;;;;;;;11.80;94.73;100369.19;2098620;28;20037;-78
2023/10/23 03:41:22;;;;;;;2.85;1.35;;;;;;;11.78;94.84;100365.19;2084267;28;20049;-78
2023/10/23 03:42:26;;;;;;;2.72;1.27;;;;;;;11.75;94.62;100363.88;2082370;28;20034;-77
2023/10/23 03:43:29;;;;;;;2.83;1.23;;;;;;;11.79;94.79;100361.38;2089943;28;20057;-76
2023/10/23 03:44:31;;;;;;;1.75;1.40;;;;;;;11.75;94.70;100360.38;2090840;28;20037;-79
2023/10/23 03:45:36;;;;;;;1.80;1.33;;;;;;;11.75;94.73;100365.75;2082159;28;20060;-79
2023/10/23 03:46:38;;;;;;;1.95;1.30;;;;;;;11.76;94.65;100367.38;2082334;28;20041;-77
2023/10/23 03:47:40;;;;;;;3.35;1.35;;;;;;;11.77;94.76;100374.34;2098696;28;20145;-77
2023/10/23 03:48:44;;;;;;;2.15;1.20;;;;;;;11.75;94.83;100371.94;2090128;28;20255;-77
2023/10/23 03:49:50;;;;;;;4.30;1.50;;;;;;;11.76;94.76;100375.47;2067718;28;20048;-77
2023/10/23 03:50:58;;;;;;;2.72;1.50;;;;;;;11.75;94.70;100382.72;2078102;28;20038;-78
2023/10/23 03:52:07;;;;;;;1.98;1.40;;;;;;;11.73;94.61;100384.13;2083796;28;20037;-78
2023/10/23 03:53:09;;;;;;;2.55;1.35;;;;;;;11.72;94.69;100374.41;2083327;28;20026;-78
2023/10/23 03:54:11;;;;;;;3.40;1.88;;;;;;;11.71;94.46;100380.91;2090180;28;20856;-78
2023/10/23 03:55:16;;;;;;;4.93;1.70;;;;;;;11.69;94.44;100389.25;2106671;28;20039;-79
2023/10/23 03:56:20;;;;;;;2.13;1.50;;;;;;;11.70;94.34;100390.09;2098312;28;20147;-78
2023/10/23 03:57:24;;;;;;;2.22;1.50;;;;;;;11.66;94.06;100387.16;2090421;28;20037;-78
2023/10/23 03:58:26;;;;;;;3.78;1.73;;;;;;;11.66;94.35;100384.47;2098132;28;20113;-80
2023/10/23 03:59:30;;;;;;;2.25;1.55;;;;;;;11.65;94.04;100387.44;2098522;28;20025;-80
2023/10/23 04:00:32;;;;;;;2.95;1.50;;;;;;;11.63;94.23;100389.63;2098658;28;21102;-79
2023/10/23 04:01:34;;;;;;;2.20;1.70;;;;;;;11.61;93.94;100384.53;2090340;28;20108;-78
2023/10/23 04:02:39;;;;;;;3.08;1.77;;;;;;;11.55;94.05;100373.03;2089087;28;20033;-80
2023/10/23 04:03:41;;;;;;;2.60;1.95;;;;;;;11.57;94.10;100378.13;2082995;28;20037;-80
2023/10/23 04:04:43;;;;;;;4.53;1.90;;;;;;;11.54;94.10;100376.03;2082006;28;20740;-79
2023/10/23 04:05:46;;;;;;;2.97;1.73;;;;;;;11.55;93.95;100383.00;2090408;28;20045;-79
2023/10/23 04:06:48;;;;;;;3.25;2.00;;;;;;;11.55;93.88;100388.38;2089844;28;20038;-78
2023/10/23 04:07:49;;;;;;;2.92;1.83;;;;;;;11.52;93.98;100383.56;2082422;28;20037;-80
2023/10/23 04:08:52;;;;;;;2.85;1.80;;;;;;;11.53;93.60;100390.56;2098354;28;20040;-79
2023/10/23 04:09:56;;;;;;;2.45;1.90;;;;;;;11.51;93.65;100381.97;2092984;28;20038;-80
2023/10/23 04:10:59;;;;;;;3.05;1.80;;;;;;;11.51;93.89;100381.97;2083825;28;20042;-80
2023/10/23 04:12:00;;;;;;;3.10;1.70;;;;;;;11.51;93.81;100388.16;2090273;28;20814;-81
2023/10/23 04:13:02;;;;;;;3.58;1.90;;;;;;;11.47;93.77;100380.94;2073524;28;20049;-79
2023/10/23 04:14:04;;;;;;;3.85;1.70;;;;;;;11.46;93.40;100382.03;2090397;28;20049;-80
2023/10/23 04:15:07;;;;;;;3.72;2.25;;;;;;;11.41;93.54;100371.31;2090086;28;20041;-79
2023/10/23 04:16:12;;;;;;;2.47;1.77;;;;;;;11.46;93.37;100382.84;2090663;28;20033;-79
2023/10/23 04:17:15;;;;;;;2.83;1.98;;;;;;;11.44;93.32;100379.63;2085783;28;20036;-78
2023/10/23 04:18:27;;;;;;;3.67;2.10;;;;;;;11.42;93.18;100383.72;2091058;28;20796;-79
2023/10/23 04:19:31;;;;;;;2.97;1.90;;;;;;;11.37;93.57;100381.88;2090069;28;20041;-80
2023/10/23 04:20:39;;;;;;;4.43;1.92;;;;;;;11.36;93.26;100386.47;2100539;28;20069;-82
2023/10/23 04:21:41;;;;;;;5.25;2.00;;;;;;;11.39;93.56;100395.06;2105520;28;20843;-82
2023/10/23 04:22:42;;;;;;;3.40;2.00;;;;;;;11.36;93.45;100394.53;2098658;28;20151;-80
2023/10/23 04:23:46;;;;;;;4.60;2.08;;;;;;;11.34;93.17;100394.00;2098556;28;20051;-79
2023/10/23 04:24:49;;;;;;;2.63;1.80;;;;;;;11.31;93.11;100394.56;2090536;28;20041;-79
2023/10/23 04:25:54;;;;;;;3.58;2.08;;;;;;;11.32;93.24;100390.03;2095181;28;20044;-77
2023/10/23 04:26:58;;;;;;;4.03;2.20;;;;;;;11.28;93.31;100395.16;2090363;28;20120;-80
2023/10/23 04:28:00;;;;;;;5.55;2.17;;;;;;;11.30;93.30;100394.88;2082065;28;20865;-80
2023/10/23 04:29:07;;;;;;;3.20;2.15;;;;;;;11.29;93.42;100390.59;2082012;28;20038;-81
2023/10/23 04:30:13;;;;;;;6.65;2.40;;;;;;;11.21;92.93;100389.31;2090966;28;20030;-81
2023/10/23 04:31:17;;;;;;;5.22;2.25;;;;;;;11.24;93.08;100394.13;2098604;28;20155;-78
2023/10/23 04:32:19;;;;;;;6.00;2.47;;;;;;;11.20;92.74;100392.31;2100387;28;20028;-79
2023/10/23 04:33:23;;;;;;;7.47;2.75;;;;;;;11.21;92.77;100396.59;2090537;28;20065;-79
2023/10/23 04:34:25;;;;;;;5.80;2.58;;;;;;;11.20;93.02;100395.00;2090600;28;20065;-79
2023/10/23 04:35:33;;;;;;;7.13;2.70;;;;;;;11.18;93.06;100400.66;2098899;28;20033;-78
2023/10/23 04:36:40;;;;;;;5.72;2.50;;;;;;;11.16;92.99;100400.16;2098248;28;21103;-78
2023/10/23 04:37:45;;;;;;;4.80;2.50;;;;;;;11.12;92.73;100394.53;2091664;28;20140;-78
2023/10/23 04:38:50;;;;;;;4.72;2.63;;;;;;;11.11;92.60;100397.50;2098552;28;20740;-77
2023/10/23 04:39:53;;;;;;;7.05;3.00;;;;;;;11.14;92.83;100405.00;2098769;28;20773;-79
2023/10/23 04:40:57;;;;;;;7.45;2.85;;;;;;;11.12;92.74;100404.50;2106786;28;20046;-80
2023/10/23 04:41:59;;;;;;;7.53;2.80;;;;;;;10.92;92.44;100375.91;2098634;28;20222;-80
2023/10/23 04:43:00;;;;;;;9.13;3.28;;;;;;;11.09;92.71;100407.75;2081797;28;20042;-80
2023/10/23 04:44:03;;;;;;;7.35;3.20;;;;;;;11.04;92.55;100400.53;2090090;28;20033;-80
2023/10/23 04:45:08;;;;;;;7.47;3.10;;;;;;;11.01;92.45;100394.94;2089957;28;20033;-78
2023/10/23 04:46:10;;;;;;;6.22;3.05;;;;;;;11.05;92.75;100412.09;2098613;28;20116;-78
2023/10/23 04:47:13;;;;;;;5.15;2.67;;;;;;;11.01;92.81;100403.00;2105531;27;20036;-79
2023/10/23 04:48:13;;;;;;;9.50;2.90;;;;;;;11.00;92.50;100407.59;2100988;28;20032;-80
2023/10/23 04:49:23;;;;;;;6.13;3.00;;;;;;;11.02;92.59;100409.97;2106176;28;20144;-79
2023/10/23 04:50:27;;;;;;;7.40;3.05;;;;;;;10.99;92.39;100410.56;2096346;28;20040;-84
2023/10/23 04:51:29;;;;;;;7.00;3.00;;;;;;;10.95;92.39;100404.94;2082589;28;20056;-82
2023/10/23 04:52:31;;;;;;;6.57;2.72;;;;;;;10.95;92.71;100409.53;2081567;28;20030;-83
2023/10/23 04:53:33;;;;;;;7.50;2.88;;;;;;;10.96;92.14;100411.13;2089216;28;20765;-78
2023/10/23 04:54:34;;;;;;;5.13;3.05;;;;;;;10.95;92.41;100417.59;2081476;28;20037;-81